Tropical Cyclones
[Index]
Main Index Home Page Stock Weather Photos Extreme Storms Discussion Storm News and Storm Chasing Reports Tropical Cyclones / Hurricanes / Typhoons Weather Data and Links Wild Fires / Bushfires Weather Observation Techniques Weather Picture Catalogue Tornado Pictures and Reports Stock Video Footage and DVDs for sale
Season 2007-2008 Tropical Cyclone GUBA Track Map
Season 2007-2008 Summaries: [BoM-AU] [JTWC-AU] [JTWC-SIO] [JTWC-SPAC] [JTWC-SH]
<<- Previous TC | BoM 2007-2008 Season | Next TC ->>

click for intensity scale information  Lat/long Grid: Show Hide

 Date Labels: Show Hide

Bureau of Meteorology Tropical Cyclone Data

Name: GUBA
Number: 911 / 200708_03

14 Nov 2007 00:00 UTC to 19 Nov 2007 12:00 UTC

    date/time    lat    long    hPa   cat  kts
2007-11-14 00   11.1   146.9    997         30          
2007-11-14 06   10.8   146.7    995    1    35          
2007-11-14 12   10.3   146.4    993    1    35          
2007-11-14 18   10.7   145.7    995    1    35          
2007-11-15 00   10.6   145.9    995    1    40          
2007-11-15 06   10.7   146.2    990    1    45          
2007-11-15 12   10.6   146.5    990    1    60          
2007-11-15 18   10.9   146.7    990    1    65          
2007-11-16 00   11.3   146.8    974    2    65          
2007-11-16 06   11.4   147.0    973    2    65          
2007-11-16 12   11.5   147.1    973    2    65          
2007-11-16 18   11.5   147.1    971    2    65          
2007-11-17 00   11.3   147.3    973    2    65          
2007-11-17 06   11.7   147.5    978    2    60          
2007-11-17 12   12.0   147.4    975    2    50          
2007-11-17 18   12.4   146.9    985    2    45          
2007-11-18 00   12.4   146.7    985    2    40          
2007-11-18 06   12.6   146.6    990    1    35          
2007-11-18 12   12.6   146.1    995    1    35          
2007-11-18 18   12.6   145.1    995    1    35          
2007-11-19 00   12.1   144.8    987    1    35          
2007-11-19 06   10.8   145.0    990    1    35          
2007-11-19 12   10.3   144.9    990    1    30          
Winds are 10-min average.

Tropical cyclone tracks developed by Michael Bath using data from the Bureau of Meteorology and Google Maps.


[Australian Severe Weather index] [Copyright Notice] [Email Contacts] [Search This Site] [Privacy Policy]
Document: tropical_cyclone_guba.htm Updated: 29 June 2017